sensor_id;sensor_type;location;lat;lon;timestamp;pressure;altitude;pressure_sealevel;temperature;humidity
9774;BME280;4926;42.670;23.316;2022-11-20T00:01:16;93797.88;;;18.56;66.49
9774;BME280;4926;42.670;23.316;2022-11-20T00:03:43;93820.22;;;18.56;66.57
9774;BME280;4926;42.670;23.316;2022-11-20T00:06:12;93810.44;;;18.67;65.63
9774;BME280;4926;42.670;23.316;2022-11-20T00:08:39;93789.72;;;18.71;66.22
9774;BME280;4926;42.670;23.316;2022-11-20T00:11:10;93810.44;;;18.67;65.77
9774;BME280;4926;42.670;23.316;2022-11-20T00:13:37;93801.53;;;18.86;65.11
9774;BME280;4926;42.670;23.316;2022-11-20T00:16:06;93795.53;;;18.92;63.98
9774;BME280;4926;42.670;23.316;2022-11-20T00:18:34;93815.53;;;18.91;63.91
9774;BME280;4926;42.670;23.316;2022-11-20T00:21:05;93781.56;;;18.87;63.42
9774;BME280;4926;42.670;23.316;2022-11-20T00:23:32;93773.38;;;19.03;62.70
9774;BME280;4926;42.670;23.316;2022-11-20T00:26:05;93772.56;;;19.02;62.64
9774;BME280;4926;42.670;23.316;2022-11-20T00:28:34;93776.78;;;19.00;62.34
9774;BME280;4926;42.670;23.316;2022-11-20T00:31:04;93753.44;;;19.11;61.17
9774;BME280;4926;42.670;23.316;2022-11-20T00:33:33;93751.06;;;19.28;60.34
9774;BME280;4926;42.670;23.316;2022-11-20T00:36:03;93762.03;;;19.16;61.23
9774;BME280;4926;42.670;23.316;2022-11-20T00:38:30;93780.78;;;19.09;61.91
9774;BME280;4926;42.670;23.316;2022-11-20T00:40:57;93768.09;;;19.10;61.32
9774;BME280;4926;42.670;23.316;2022-11-20T00:43:25;93780.50;;;19.14;61.54
9774;BME280;4926;42.670;23.316;2022-11-20T00:46:04;93776.47;;;19.05;61.50
9774;BME280;4926;42.670;23.316;2022-11-20T00:48:31;93757.91;;;19.00;60.63
9774;BME280;4926;42.670;23.316;2022-11-20T00:50:58;93770.19;;;19.20;60.48
9774;BME280;4926;42.670;23.316;2022-11-20T00:53:30;93786.06;;;19.25;59.84
9774;BME280;4926;42.670;23.316;2022-11-20T00:56:01;93778.72;;;19.22;60.04
9774;BME280;4926;42.670;23.316;2022-11-20T00:58:30;93771.41;;;19.22;60.42
9774;BME280;4926;42.670;23.316;2022-11-20T01:01:00;93763.72;;;19.24;59.64
9774;BME280;4926;42.670;23.316;2022-11-20T01:03:30;93731.34;;;19.24;59.26
9774;BME280;4926;42.670;23.316;2022-11-20T01:06:01;93771.88;;;19.28;60.57
9774;BME280;4926;42.670;23.316;2022-11-20T01:08:32;93737.44;;;19.21;60.10
9774;BME280;4926;42.670;23.316;2022-11-20T01:11:00;93774.69;;;19.31;59.40
9774;BME280;4926;42.670;23.316;2022-11-20T01:13:29;93751.31;;;19.20;60.18
9774;BME280;4926;42.670;23.316;2022-11-20T01:16:08;93764.38;;;19.18;60.43
9774;BME280;4926;42.670;23.316;2022-11-20T01:18:38;93780.44;;;19.11;60.27
9774;BME280;4926;42.670;23.316;2022-11-20T01:21:09;93754.91;;;19.27;59.29
9774;BME280;4926;42.670;23.316;2022-11-20T01:23:38;93746.69;;;19.20;59.36
9774;BME280;4926;42.670;23.316;2022-11-20T01:26:09;93731.28;;;19.21;59.74
9774;BME280;4926;42.670;23.316;2022-11-20T01:28:36;93759.03;;;19.21;59.59
9774;BME280;4926;42.670;23.316;2022-11-20T01:31:12;93790.66;;;19.21;59.33
9774;BME280;4926;42.670;23.316;2022-11-20T01:33:41;93741.50;;;19.31;59.29
9774;BME280;4926;42.670;23.316;2022-11-20T01:36:08;93744.47;;;19.26;59.78
9774;BME280;4926;42.670;23.316;2022-11-20T01:38:38;93733.75;;;19.07;60.39
9774;BME280;4926;42.670;23.316;2022-11-20T01:41:06;93737.38;;;19.18;59.50
9774;BME280;4926;42.670;23.316;2022-11-20T01:43:41;93741.19;;;19.13;58.92
9774;BME280;4926;42.670;23.316;2022-11-20T01:46:15;93742.03;;;19.17;59.40
9774;BME280;4926;42.670;23.316;2022-11-20T01:48:48;93737.38;;;19.18;59.58
9774;BME280;4926;42.670;23.316;2022-11-20T01:51:22;93725.84;;;19.17;58.76
9774;BME280;4926;42.670;23.316;2022-11-20T01:53:53;93747.88;;;19.23;59.45
9774;BME280;4926;42.670;23.316;2022-11-20T01:56:31;93734.94;;;19.09;59.56
9774;BME280;4926;42.670;23.316;2022-11-20T01:59:02;93757.91;;;19.00;60.03
9774;BME280;4926;42.670;23.316;2022-11-20T02:01:30;93739.44;;;19.02;59.28
9774;BME280;4926;42.670;23.316;2022-11-20T02:03:59;93743.81;;;19.10;58.60
9774;BME280;4926;42.670;23.316;2022-11-20T02:06:28;93751.47;;;19.08;59.05
9774;BME280;4926;42.670;23.316;2022-11-20T02:08:56;93752.63;;;19.07;58.42
9774;BME280;4926;42.670;23.316;2022-11-20T02:11:22;93764.13;;;19.04;58.54
9774;BME280;4926;42.670;23.316;2022-11-20T02:13:49;93739.38;;;18.98;59.29
9774;BME280;4926;42.670;23.316;2022-11-20T02:16:20;93779.19;;;19.05;58.44
9774;BME280;4926;42.670;23.316;2022-11-20T02:18:49;93742.97;;;19.06;58.84
9774;BME280;4926;42.670;23.316;2022-11-20T02:21:27;93738.66;;;19.01;59.19
9774;BME280;4926;42.670;23.316;2022-11-20T02:24:04;93764.13;;;19.04;58.91
9774;BME280;4926;42.670;23.316;2022-11-20T02:26:34;93755.56;;;18.98;59.51
9774;BME280;4926;42.670;23.316;2022-11-20T02:29:04;93738.59;;;18.98;59.30
9774;BME280;4926;42.670;23.316;2022-11-20T02:31:36;93752.97;;;19.05;59.30
9774;BME280;4926;42.670;23.316;2022-11-20T02:34:06;93780.31;;;19.04;59.54
9774;BME280;4926;42.670;23.316;2022-11-20T02:36:33;93733.91;;;18.95;59.58
9774;BME280;4926;42.670;23.316;2022-11-20T02:39:03;93774.31;;;18.91;59.63
9774;BME280;4926;42.670;23.316;2022-11-20T02:41:31;93757.34;;;18.90;60.16
9774;BME280;4926;42.670;23.316;2022-11-20T02:43:58;93768.56;;;18.92;60.03
9774;BME280;4926;42.670;23.316;2022-11-20T02:46:25;93784.69;;;18.89;60.56
9774;BME280;4926;42.670;23.316;2022-11-20T02:48:54;93796.81;;;18.79;60.91
9774;BME280;4926;42.670;23.316;2022-11-20T02:51:24;93772.97;;;18.81;60.89
9774;BME280;4926;42.670;23.316;2022-11-20T02:53:50;93807.16;;;18.77;61.44
9774;BME280;4926;42.670;23.316;2022-11-20T02:56:21;93792.72;;;18.66;62.42
9774;BME280;4926;42.670;23.316;2022-11-20T02:58:50;93799.50;;;18.60;63.25
9774;BME280;4926;42.670;23.316;2022-11-20T03:01:17;93826.47;;;18.60;63.54
9774;BME280;4926;42.670;23.316;2022-11-20T03:03:43;93791.06;;;18.62;63.62
9774;BME280;4926;42.670;23.316;2022-11-20T03:06:14;93807.16;;;18.58;64.21
9774;BME280;4926;42.670;23.316;2022-11-20T03:08:41;93804.47;;;18.58;64.49
9774;BME280;4926;42.670;23.316;2022-11-20T03:11:07;93820.13;;;18.53;64.63
9774;BME280;4926;42.670;23.316;2022-11-20T03:13:39;93804.34;;;18.36;65.36
9774;BME280;4926;42.670;23.316;2022-11-20T03:16:12;93811.44;;;18.40;65.21
9774;BME280;4926;42.670;23.316;2022-11-20T03:18:39;93808.44;;;18.45;65.26
9774;BME280;4926;42.670;23.316;2022-11-20T03:21:06;93846.19;;;18.45;65.07
9774;BME280;4926;42.670;23.316;2022-11-20T03:23:34;93839.03;;;18.37;65.68
9774;BME280;4926;42.670;23.316;2022-11-20T03:26:08;93828.25;;;18.37;65.67
9774;BME280;4926;42.670;23.316;2022-11-20T03:28:36;93830.50;;;18.35;66.29
9774;BME280;4926;42.670;23.316;2022-11-20T03:31:10;93844.44;;;18.37;65.49
9774;BME280;4926;42.670;23.316;2022-11-20T03:33:37;93822.72;;;18.30;65.59
9774;BME280;4926;42.670;23.316;2022-11-20T03:36:05;93826.00;;;18.39;65.56
9774;BME280;4926;42.670;23.316;2022-11-20T03:38:34;93837.25;;;18.26;65.83
9774;BME280;4926;42.670;23.316;2022-11-20T03:41:01;93814.63;;;18.30;65.69
9774;BME280;4926;42.670;23.316;2022-11-20T03:43:31;93843.22;;;18.35;65.53
9774;BME280;4926;42.670;23.316;2022-11-20T03:46:01;93859.75;;;18.33;65.64
9774;BME280;4926;42.670;23.316;2022-11-20T03:48:27;93858.19;;;18.32;65.67
9774;BME280;4926;42.670;23.316;2022-11-20T03:51:06;93855.84;;;18.31;65.34
9774;BME280;4926;42.670;23.316;2022-11-20T03:53:44;93847.56;;;18.39;65.28
9774;BME280;4926;42.670;23.316;2022-11-20T03:56:13;93851.84;;;18.40;65.15
9774;BME280;4926;42.670;23.316;2022-11-20T03:58:41;93844.44;;;18.37;65.23
9774;BME280;4926;42.670;23.316;2022-11-20T04:01:11;93828.09;;;18.30;65.47
9774;BME280;4926;42.670;23.316;2022-11-20T04:03:39;93842.88;;;18.36;64.79
9774;BME280;4926;42.670;23.316;2022-11-20T04:06:08;93848.97;;;18.33;64.98
9774;BME280;4926;42.670;23.316;2022-11-20T04:08:39;93857.31;;;18.28;65.41
9774;BME280;4926;42.670;23.316;2022-11-20T04:11:10;93855.84;;;18.31;65.02
9774;BME280;4926;42.670;23.316;2022-11-20T04:13:40;93848.19;;;18.33;64.95
9774;BME280;4926;42.670;23.316;2022-11-20T04:16:17;93852.63;;;18.25;65.58
9774;BME280;4926;42.670;23.316;2022-11-20T04:18:44;93853.78;;;18.24;65.36
9774;BME280;4926;42.670;23.316;2022-11-20T04:21:11;93848.22;;;18.17;65.68
9774;BME280;4926;42.670;23.316;2022-11-20T04:23:38;93866.38;;;18.20;65.35
9774;BME280;4926;42.670;23.316;2022-11-20T04:26:07;93853.34;;;18.22;65.25
9774;BME280;4926;42.670;23.316;2022-11-20T04:28:35;93863.44;;;18.10;65.99
9774;BME280;4926;42.670;23.316;2022-11-20T04:31:05;93858.56;;;18.15;65.53
9774;BME280;4926;42.670;23.316;2022-11-20T04:33:34;93862.38;;;18.14;65.47
9774;BME280;4926;42.670;23.316;2022-11-20T04:36:03;93855.16;;;18.18;65.87
9774;BME280;4926;42.670;23.316;2022-11-20T04:38:32;93873.16;;;18.14;66.73
9774;BME280;4926;42.670;23.316;2022-11-20T04:41:00;93856.94;;;17.95;66.94
9774;BME280;4926;42.670;23.316;2022-11-20T04:43:27;93860.22;;;18.04;67.04
9774;BME280;4926;42.670;23.316;2022-11-20T04:46:01;93859.38;;;18.00;67.35
9774;BME280;4926;42.670;23.316;2022-11-20T04:48:29;93857.28;;;17.94;67.89
9774;BME280;4926;42.670;23.316;2022-11-20T04:50:57;93853.81;;;17.93;67.79
9774;BME280;4926;42.670;23.316;2022-11-20T04:53:25;93851.47;;;17.92;67.88
9774;BME280;4926;42.670;23.316;2022-11-20T04:55:51;93854.25;;;17.95;67.78
9774;BME280;4926;42.670;23.316;2022-11-20T04:58:28;93854.78;;;17.85;67.97
9774;BME280;4926;42.670;23.316;2022-11-20T05:01:00;93846.34;;;17.87;67.40
9774;BME280;4926;42.670;23.316;2022-11-20T05:03:30;93847.13;;;17.87;66.98
9774;BME280;4926;42.670;23.316;2022-11-20T05:06:00;93816.53;;;17.95;66.45
9774;BME280;4926;42.670;23.316;2022-11-20T05:08:28;93824.44;;;17.88;66.60
9774;BME280;4926;42.670;23.316;2022-11-20T05:10:59;93817.09;;;17.85;67.21
9774;BME280;4926;42.670;23.316;2022-11-20T05:13:27;93804.75;;;17.84;66.99
9774;BME280;4926;42.670;23.316;2022-11-20T05:15:54;93818.50;;;17.79;67.55
9774;BME280;4926;42.670;23.316;2022-11-20T05:18:20;93812.31;;;17.78;68.01
9774;BME280;4926;42.670;23.316;2022-11-20T05:20:54;93815.72;;;17.75;68.62
9774;BME280;4926;42.670;23.316;2022-11-20T05:23:23;93824.38;;;17.69;68.24
9774;BME280;4926;42.670;23.316;2022-11-20T05:25:52;93799.22;;;17.77;68.12
9774;BME280;4926;42.670;23.316;2022-11-20T05:28:21;93810.06;;;17.80;68.64
9774;BME280;4926;42.670;23.316;2022-11-20T05:30:48;93808.47;;;17.79;68.83
9774;BME280;4926;42.670;23.316;2022-11-20T05:33:15;93792.84;;;17.85;68.32
9774;BME280;4926;42.670;23.316;2022-11-20T05:35:42;93805.28;;;17.74;68.56
9774;BME280;4926;42.670;23.316;2022-11-20T05:38:09;93821.50;;;17.77;68.79
9774;BME280;4926;42.670;23.316;2022-11-20T05:40:37;93827.69;;;17.78;67.84
9774;BME280;4926;42.670;23.316;2022-11-20T05:43:04;93825.34;;;17.76;67.93
9774;BME280;4926;42.670;23.316;2022-11-20T05:45:31;93822.47;;;17.85;68.05
9774;BME280;4926;42.670;23.316;2022-11-20T05:47:58;93825.31;;;17.92;67.33
9774;BME280;4926;42.670;23.316;2022-11-20T05:50:26;93821.34;;;17.86;67.58
9774;BME280;4926;42.670;23.316;2022-11-20T05:52:53;93817.25;;;17.92;67.74
9774;BME280;4926;42.670;23.316;2022-11-20T05:55:22;93825.75;;;17.94;67.38
9774;BME280;4926;42.670;23.316;2022-11-20T05:57:52;93826.81;;;17.90;67.86
9774;BME280;4926;42.670;23.316;2022-11-20T06:00:21;93852.25;;;17.92;68.80
9774;BME280;4926;42.670;23.316;2022-11-20T06:02:49;93824.72;;;17.83;68.54
9774;BME280;4926;42.670;23.316;2022-11-20T06:05:15;93843.84;;;17.78;68.44
9774;BME280;4926;42.670;23.316;2022-11-20T06:07:42;93858.34;;;17.73;71.93
9774;BME280;4926;42.670;23.316;2022-11-20T06:10:09;93864.41;;;17.55;73.72
9774;BME280;4926;42.670;23.316;2022-11-20T06:12:36;93864.19;;;17.32;74.07
9774;BME280;4926;42.670;23.316;2022-11-20T06:15:05;93877.38;;;17.37;74.72
9774;BME280;4926;42.670;23.316;2022-11-20T06:17:34;93865.59;;;17.42;75.52
9774;BME280;4926;42.670;23.316;2022-11-20T06:20:00;93869.84;;;17.43;75.80
9774;BME280;4926;42.670;23.316;2022-11-20T06:22:33;93865.41;;;17.35;76.36
9774;BME280;4926;42.670;23.316;2022-11-20T06:25:00;93861.22;;;17.37;76.06
9774;BME280;4926;42.670;23.316;2022-11-20T06:27:27;93866.47;;;17.46;76.23
9774;BME280;4926;42.670;23.316;2022-11-20T06:29:56;93875.91;;;17.40;77.18
9774;BME280;4926;42.670;23.316;2022-11-20T06:32:24;93873.03;;;17.33;77.97
9774;BME280;4926;42.670;23.316;2022-11-20T06:34:55;93871.81;;;17.30;78.15
9774;BME280;4926;42.670;23.316;2022-11-20T06:37:22;93851.97;;;17.35;77.48
9774;BME280;4926;42.670;23.316;2022-11-20T06:39:49;93860.66;;;17.44;77.40
9774;BME280;4926;42.670;23.316;2022-11-20T06:42:18;93865.25;;;17.43;77.62
9774;BME280;4926;42.670;23.316;2022-11-20T06:44:45;93871.63;;;17.51;78.08
9774;BME280;4926;42.670;23.316;2022-11-20T06:47:12;93881.00;;;17.57;77.41
9774;BME280;4926;42.670;23.316;2022-11-20T06:49:40;93868.78;;;17.59;76.07
9774;BME280;4926;42.670;23.316;2022-11-20T06:52:06;93874.69;;;17.65;75.84
9774;BME280;4926;42.670;23.316;2022-11-20T06:54:33;93902.88;;;17.71;75.99
9774;BME280;4926;42.670;23.316;2022-11-20T06:57:00;93859.13;;;17.74;73.64
9774;BME280;4926;42.670;23.316;2022-11-20T06:59:26;93862.94;;;17.73;72.97
9774;BME280;4926;42.670;23.316;2022-11-20T07:01:53;93877.91;;;17.86;72.96
9774;BME280;4926;42.670;23.316;2022-11-20T07:04:23;93884.03;;;18.02;70.68
9774;BME280;4926;42.670;23.316;2022-11-20T07:06:51;93874.66;;;18.12;71.12
9774;BME280;4926;42.670;23.316;2022-11-20T07:09:18;93865.50;;;18.16;68.24
9774;BME280;4926;42.670;23.316;2022-11-20T07:11:45;93853.84;;;18.28;66.92
9774;BME280;4926;42.670;23.316;2022-11-20T07:14:11;93859.75;;;18.33;65.97
9774;BME280;4926;42.670;23.316;2022-11-20T07:16:42;93852.78;;;18.32;65.98
9774;BME280;4926;42.670;23.316;2022-11-20T07:19:14;93870.72;;;18.40;66.03
9774;BME280;4926;42.670;23.316;2022-11-20T07:21:41;93871.13;;;18.42;66.28
9774;BME280;4926;42.670;23.316;2022-11-20T07:24:09;93862.63;;;18.40;66.71
9774;BME280;4926;42.670;23.316;2022-11-20T07:26:38;93869.03;;;18.36;66.82
9774;BME280;4926;42.670;23.316;2022-11-20T07:29:05;93876.59;;;18.30;67.55
9774;BME280;4926;42.670;23.316;2022-11-20T07:31:31;93879.50;;;18.22;67.94
9774;BME280;4926;42.670;23.316;2022-11-20T07:33:58;93889.75;;;18.16;68.46
9774;BME280;4926;42.670;23.316;2022-11-20T07:36:24;93890.34;;;18.25;68.28
9774;BME280;4926;42.670;23.316;2022-11-20T07:38:51;93859.00;;;18.17;67.34
9774;BME280;4926;42.670;23.316;2022-11-20T07:41:22;93890.16;;;18.34;67.13
9774;BME280;4926;42.670;23.316;2022-11-20T07:43:51;93882.44;;;18.32;67.72
9774;BME280;4926;42.670;23.316;2022-11-20T07:46:18;93876.59;;;18.30;67.30
9774;BME280;4926;42.670;23.316;2022-11-20T07:48:50;93884.53;;;18.23;67.83
9774;BME280;4926;42.670;23.316;2022-11-20T07:51:19;93882.91;;;18.19;68.87
9774;BME280;4926;42.670;23.316;2022-11-20T07:53:46;93875.69;;;18.23;68.38
9774;BME280;4926;42.670;23.316;2022-11-20T07:56:12;93872.56;;;18.21;68.40
9774;BME280;4926;42.670;23.316;2022-11-20T07:58:41;93884.78;;;18.18;67.35
9774;BME280;4926;42.670;23.316;2022-11-20T08:01:08;93892.72;;;18.11;65.82
9774;BME280;4926;42.670;23.316;2022-11-20T08:03:35;93886.63;;;18.14;66.37
9774;BME280;4926;42.670;23.316;2022-11-20T08:06:07;93896.88;;;18.24;67.03
9774;BME280;4926;42.670;23.316;2022-11-20T08:08:40;93883.84;;;18.26;66.68
9774;BME280;4926;42.670;23.316;2022-11-20T08:11:07;93879.72;;;18.32;66.91
9774;BME280;4926;42.670;23.316;2022-11-20T08:13:52;93885.28;;;18.39;67.42
9774;BME280;4926;42.670;23.316;2022-11-20T08:16:36;93869.31;;;18.31;67.84
9774;BME280;4926;42.670;23.316;2022-11-20T08:19:03;93865.06;;;18.45;67.13
9774;BME280;4926;42.670;23.316;2022-11-20T08:21:32;93865.75;;;18.61;66.26
9774;BME280;4926;42.670;23.316;2022-11-20T08:23:59;93879.13;;;18.73;65.93
9774;BME280;4926;42.670;23.316;2022-11-20T08:26:26;93886.50;;;18.76;65.32
9774;BME280;4926;42.670;23.316;2022-11-20T08:28:55;93911.06;;;18.90;65.60
9774;BME280;4926;42.670;23.316;2022-11-20T08:31:22;93913.78;;;19.10;65.24
9774;BME280;4926;42.670;23.316;2022-11-20T08:33:49;93924.13;;;19.27;65.43
9774;BME280;4926;42.670;23.316;2022-11-20T08:36:16;93883.59;;;19.42;64.55
9774;BME280;4926;42.670;23.316;2022-11-20T08:38:47;93885.72;;;19.33;64.28
9774;BME280;4926;42.670;23.316;2022-11-20T08:41:14;93903.72;;;19.07;65.47
9774;BME280;4926;42.670;23.316;2022-11-20T08:43:52;93904.41;;;19.04;64.65
9774;BME280;4926;42.670;23.316;2022-11-20T08:46:21;93928.75;;;18.88;65.84
9774;BME280;4926;42.670;23.316;2022-11-20T08:48:51;93935.34;;;18.90;66.22
9774;BME280;4926;42.670;23.316;2022-11-20T08:51:18;93954.09;;;18.83;69.36
9774;BME280;4926;42.670;23.316;2022-11-20T08:53:45;93969.78;;;18.62;73.98
9774;BME280;4926;42.670;23.316;2022-11-20T08:56:14;93968.94;;;18.27;77.17
9774;BME280;4926;42.670;23.316;2022-11-20T08:58:42;93935.81;;;18.11;77.29
9774;BME280;4926;42.670;23.316;2022-11-20T09:01:09;93946.75;;;17.87;79.22
9774;BME280;4926;42.670;23.316;2022-11-20T09:03:37;93941.72;;;17.86;81.18
9774;BME280;4926;42.670;23.316;2022-11-20T09:06:05;93938.34;;;18.04;80.94
9774;BME280;4926;42.670;23.316;2022-11-20T09:08:33;93943.09;;;17.79;82.25
9774;BME280;4926;42.670;23.316;2022-11-20T09:11:02;93946.31;;;17.85;83.83
9774;BME280;4926;42.670;23.316;2022-11-20T09:13:29;93918.78;;;17.92;86.00
9774;BME280;4926;42.670;23.316;2022-11-20T09:15:58;93962.03;;;17.83;85.39
9774;BME280;4926;42.670;23.316;2022-11-20T09:18:26;93913.13;;;17.65;91.74
9774;BME280;4926;42.670;23.316;2022-11-20T09:20:57;93933.56;;;17.66;89.07
9774;BME280;4926;42.670;23.316;2022-11-20T09:23:24;93949.91;;;17.46;86.34
9774;BME280;4926;42.670;23.316;2022-11-20T09:25:51;93941.00;;;17.30;87.85
9774;BME280;4926;42.670;23.316;2022-11-20T09:28:21;93937.75;;;16.97;92.78
9774;BME280;4926;42.670;23.316;2022-11-20T09:30:47;93927.63;;;16.66;91.93
9774;BME280;4926;42.670;23.316;2022-11-20T09:33:14;93924.41;;;16.60;93.54
9774;BME280;4926;42.670;23.316;2022-11-20T09:35:41;93924.41;;;16.60;95.01
9774;BME280;4926;42.670;23.316;2022-11-20T09:38:13;93910.66;;;16.50;100.00
9774;BME280;4926;42.670;23.316;2022-11-20T09:40:45;93884.47;;;16.35;100.00
9774;BME280;4926;42.670;23.316;2022-11-20T09:43:16;93881.00;;;16.46;100.00
9774;BME280;4926;42.670;23.316;2022-11-20T09:45:55;93890.84;;;16.54;100.00
9774;BME280;4926;42.670;23.316;2022-11-20T09:48:42;93891.28;;;16.56;100.00
9774;BME280;4926;42.670;23.316;2022-11-20T09:51:25;93881.59;;;16.67;100.00
9774;BME280;4926;42.670;23.316;2022-11-20T09:54:07;93881.31;;;16.97;100.00
9774;BME280;4926;42.670;23.316;2022-11-20T09:56:40;93871.84;;;17.03;100.00
9774;BME280;4926;42.670;23.316;2022-11-20T09:59:15;93895.81;;;17.35;100.00
9774;BME280;4926;42.670;23.316;2022-11-20T10:01:47;93897.31;;;17.64;100.00
9774;BME280;4926;42.670;23.316;2022-11-20T10:04:16;93891.63;;;17.97;100.00
9774;BME280;4926;42.670;23.316;2022-11-20T10:06:51;93880.81;;;17.81;100.00
9774;BME280;4926;42.670;23.316;2022-11-20T10:09:27;93879.38;;;17.68;100.00
9774;BME280;4926;42.670;23.316;2022-11-20T10:12:09;93873.97;;;17.68;100.00
9774;BME280;4926;42.670;23.316;2022-11-20T10:14:48;93873.09;;;17.79;100.00
9774;BME280;4926;42.670;23.316;2022-11-20T10:17:29;93866.69;;;17.84;100.00
9774;BME280;4926;42.670;23.316;2022-11-20T10:20:15;93859.28;;;18.12;100.00
9774;BME280;4926;42.670;23.316;2022-11-20T10:22:53;93864.59;;;17.93;100.00
9774;BME280;4926;42.670;23.316;2022-11-20T10:25:27;93867.63;;;17.76;97.73
9774;BME280;4926;42.670;23.316;2022-11-20T10:28:11;93864.16;;;17.60;100.00
9774;BME280;4926;42.670;23.316;2022-11-20T10:30:42;93874.91;;;17.60;100.00
9774;BME280;4926;42.670;23.316;2022-11-20T10:33:16;93880.91;;;17.53;100.00
9774;BME280;4926;42.670;23.316;2022-11-20T10:35:52;93868.28;;;17.42;100.00
9774;BME280;4926;42.670;23.316;2022-11-20T10:38:23;93864.53;;;17.31;100.00
9774;BME280;4926;42.670;23.316;2022-11-20T10:41:01;93869.75;;;17.39;100.00
9774;BME280;4926;42.670;23.316;2022-11-20T10:43:43;93886.69;;;17.40;100.00
9774;BME280;4926;42.670;23.316;2022-11-20T10:46:14;93880.41;;;17.36;100.00
9774;BME280;4926;42.670;23.316;2022-11-20T10:48:43;93867.03;;;17.24;100.00
9774;BME280;4926;42.670;23.316;2022-11-20T10:51:21;93856.28;;;17.24;100.00
9774;BME280;4926;42.670;23.316;2022-11-20T10:54:06;93895.94;;;17.27;100.00
9774;BME280;4926;42.670;23.316;2022-11-20T10:56:41;93888.56;;;17.24;100.00
9774;BME280;4926;42.670;23.316;2022-11-20T10:59:38;93872.66;;;17.19;100.00
9774;BME280;4926;42.670;23.316;2022-11-20T11:02:19;93900.72;;;17.18;100.00
9774;BME280;4926;42.670;23.316;2022-11-20T11:04:47;93912.22;;;17.18;100.00
9774;BME280;4926;42.670;23.316;2022-11-20T11:07:17;93934.13;;;17.05;100.00
9774;BME280;4926;42.670;23.316;2022-11-20T11:09:48;93932.28;;;16.93;100.00
9774;BME280;4926;42.670;23.316;2022-11-20T11:12:19;93964.72;;;16.48;100.00
9774;BME280;4926;42.670;23.316;2022-11-20T11:14:48;93952.84;;;15.89;100.00
9774;BME280;4926;42.670;23.316;2022-11-20T11:17:27;93957.44;;;15.44;100.00
9774;BME280;4926;42.670;23.316;2022-11-20T11:20:03;93934.22;;;15.27;100.00
9774;BME280;4926;42.670;23.316;2022-11-20T11:22:31;93942.75;;;15.09;100.00
9774;BME280;4926;42.670;23.316;2022-11-20T11:24:59;93948.72;;;14.94;100.00
9774;BME280;4926;42.670;23.316;2022-11-20T11:27:27;93914.88;;;14.48;100.00
9774;BME280;4926;42.670;23.316;2022-11-20T11:30:10;93888.81;;;14.36;100.00
9774;BME280;4926;42.670;23.316;2022-11-20T11:32:38;93921.78;;;14.28;100.00
9774;BME280;4926;42.670;23.316;2022-11-20T11:35:06;93895.84;;;13.91;100.00
9774;BME280;4926;42.670;23.316;2022-11-20T11:37:45;93899.81;;;13.85;100.00
9774;BME280;4926;42.670;23.316;2022-11-20T11:40:15;93881.28;;;13.80;100.00
9774;BME280;4926;42.670;23.316;2022-11-20T11:42:52;93879.03;;;13.82;100.00
9774;BME280;4926;42.670;23.316;2022-11-20T11:45:25;93884.03;;;13.92;100.00
9774;BME280;4926;42.670;23.316;2022-11-20T11:47:52;93871.63;;;13.88;100.00
9774;BME280;4926;42.670;23.316;2022-11-20T11:50:23;93865.50;;;13.87;100.00
9774;BME280;4926;42.670;23.316;2022-11-20T11:53:01;93890.47;;;13.91;100.00
9774;BME280;4926;42.670;23.316;2022-11-20T11:55:35;93905.25;;;13.97;100.00
9774;BME280;4926;42.670;23.316;2022-11-20T11:58:20;93901.53;;;14.10;100.00
9774;BME280;4926;42.670;23.316;2022-11-20T12:00:57;93882.44;;;14.20;100.00
9774;BME280;4926;42.670;23.316;2022-11-20T12:03:28;93901.63;;;14.22;100.00
9774;BME280;4926;42.670;23.316;2022-11-20T12:06:01;93878.28;;;14.31;100.00
9774;BME280;4926;42.670;23.316;2022-11-20T12:08:38;93864.97;;;14.43;100.00
9774;BME280;4926;42.670;23.316;2022-11-20T12:11:12;93881.97;;;14.47;100.00
9774;BME280;4926;42.670;23.316;2022-11-20T12:13:49;93874.78;;;14.39;100.00
9774;BME280;4926;42.670;23.316;2022-11-20T12:16:19;93865.84;;;14.35;100.00
9774;BME280;4926;42.670;23.316;2022-11-20T12:18:48;93876.59;;;14.27;100.00
9774;BME280;4926;42.670;23.316;2022-11-20T12:21:28;93861.19;;;14.15;100.00
9774;BME280;4926;42.670;23.316;2022-11-20T12:24:12;93865.72;;;14.03;100.00
9774;BME280;4926;42.670;23.316;2022-11-20T12:26:55;93868.88;;;13.96;100.00
9774;BME280;4926;42.670;23.316;2022-11-20T12:29:43;93889.19;;;13.97;100.00
9774;BME280;4926;42.670;23.316;2022-11-20T12:32:36;93913.19;;;13.85;100.00
9774;BME280;4926;42.670;23.316;2022-11-20T12:35:16;93894.94;;;13.87;100.00
9774;BME280;4926;42.670;23.316;2022-11-20T12:37:54;93854.97;;;13.82;100.00
9774;BME280;4926;42.670;23.316;2022-11-20T12:40:34;93832.66;;;13.78;100.00
9774;BME280;4926;42.670;23.316;2022-11-20T12:43:11;93819.38;;;13.90;100.00
9774;BME280;4926;42.670;23.316;2022-11-20T12:46:13;93803.97;;;14.08;100.00
9774;BME280;4926;42.670;23.316;2022-11-20T12:48:49;93799.91;;;14.22;100.00
9774;BME280;4926;42.670;23.316;2022-11-20T12:51:29;93801.25;;;14.37;100.00
9774;BME280;4926;42.670;23.316;2022-11-20T12:54:28;93809.19;;;14.45;100.00
9774;BME280;4926;42.670;23.316;2022-11-20T12:57:06;93827.47;;;14.43;100.00
9774;BME280;4926;42.670;23.316;2022-11-20T12:59:50;93828.81;;;14.37;100.00
9774;BME280;4926;42.670;23.316;2022-11-20T13:02:30;93837.94;;;14.36;100.00
9774;BME280;4926;42.670;23.316;2022-11-20T13:05:18;93853.44;;;14.31;100.00
9774;BME280;4926;42.670;23.316;2022-11-20T13:07:47;93842.09;;;14.25;100.00
9774;BME280;4926;42.670;23.316;2022-11-20T13:10:18;93838.69;;;14.16;100.00
9774;BME280;4926;42.670;23.316;2022-11-20T13:12:51;93839.91;;;13.98;100.00
9774;BME280;4926;42.670;23.316;2022-11-20T13:15:33;93864.47;;;14.00;100.00
9774;BME280;4926;42.670;23.316;2022-11-20T13:18:07;93877.84;;;14.00;100.00
9774;BME280;4926;42.670;23.316;2022-11-20T13:20:42;93876.56;;;14.06;100.00
9774;BME280;4926;42.670;23.316;2022-11-20T13:23:10;93832.34;;;14.00;100.00
9774;BME280;4926;42.670;23.316;2022-11-20T13:25:47;93843.09;;;13.71;100.00
9774;BME280;4926;42.670;23.316;2022-11-20T13:28:29;93881.72;;;13.82;100.00